Terminal Aerodrome Forecast
Issued by NWS

Home | Current Version | Previous Version | Text Only | Print | Product List | Glossary On
Versions: 1 2 3 4 5 6 7 8 9 10 11 12 13 14 15 16 17 18 19 20 21 22 23 24 25 26
000
FTAK31 PAFA 261729
TAFATA
TAF
PATA 261729Z 2618/2718 04005KT P6SM BKN110
     FM262000 09008KT P6SM SCT050 SCT100 BKN200
     FM270800 VRB04KT P6SM SCT050 BKN100 OVC200
     FM271400 VRB04KT P6SM SCT025 OVC050=

USA.gov is the U.S. government's official web portal to all federal, state and local government web resources and services.